Time;durP1;ratioP1;P1;durP2;ratioP2;P2;SDS_P1;SDS_P2;PMS_P1;PMS_P2;Temp;Humidity;BMP_temperature;BMP_pressure;BME280_temperature;BME280_humidity;BME280_pressure;Samples;Min_cycle;Max_cycle;Signal;HPM_P1;HPM_P2
2023/03/16 00:00:54;;;;;;;3.53;1.13;;;9.90;99.90;;;;;;6205266;23;20165;-96
2023/03/16 00:03:29;;;;;;;2.90;1.20;;;10.00;99.90;;;;;;6233688;23;20180;-95
2023/03/16 00:06:01;;;;;;;2.37;1.20;;;10.10;99.90;;;;;;6235137;23;20200;-94
2023/03/16 00:08:35;;;;;;;2.37;1.20;;;10.10;99.90;;;;;;6234610;23;20180;-96
2023/03/16 00:11:06;;;;;;;1.53;0.90;;;10.30;99.90;;;;;;6231353;23;20175;-96
2023/03/16 00:13:38;;;;;;;2.67;1.10;;;10.20;99.90;;;;;;6232133;23;20200;-96
2023/03/16 00:16:09;;;;;;;2.03;0.93;;;10.20;99.90;;;;;;6224376;23;20669;-95
2023/03/16 00:18:40;;;;;;;1.97;1.00;;;10.00;99.90;;;;;;6220898;23;20164;-95
2023/03/16 00:21:15;;;;;;;3.93;1.00;;;10.10;99.90;;;;;;6223655;23;20168;-96
2023/03/16 00:23:48;;;;;;;4.07;1.27;;;10.10;99.90;;;;;;6222442;23;20168;-96
2023/03/16 00:26:19;;;;;;;1.67;0.80;;;10.00;99.90;;;;;;6222263;23;20169;-96
2023/03/16 00:28:53;;;;;;;1.73;0.90;;;10.00;99.90;;;;;;6221665;23;20168;-96
2023/03/16 00:31:24;;;;;;;4.33;1.00;;;9.90;99.90;;;;;;6220700;23;20169;-96
2023/03/16 00:33:55;;;;;;;3.10;0.97;;;9.80;99.90;;;;;;6220467;23;20174;-96
2023/03/16 00:36:26;;;;;;;4.00;1.00;;;9.70;99.90;;;;;;6221592;23;20219;-96
2023/03/16 00:38:58;;;;;;;4.03;1.20;;;9.70;99.90;;;;;;6222770;23;20203;-95
2023/03/16 00:41:29;;;;;;;3.63;0.93;;;9.60;99.90;;;;;;6223705;23;20172;-96
2023/03/16 00:44:00;;;;;;;3.40;0.97;;;9.60;99.90;;;;;;6223966;23;20169;-94
2023/03/16 00:46:35;;;;;;;1.73;1.13;;;9.50;99.90;;;;;;6226223;23;20180;-95
2023/03/16 00:49:08;;;;;;;5.03;0.93;;;9.40;99.90;;;;;;6222233;23;20176;-96
2023/03/16 00:51:39;;;;;;;2.70;0.97;;;9.40;99.90;;;;;;6220603;23;20180;-96
2023/03/16 00:54:12;;;;;;;3.33;1.07;;;9.40;99.90;;;;;;6221538;23;20174;-96
2023/03/16 00:56:42;;;;;;;3.87;1.10;;;9.40;99.90;;;;;;6232475;23;20188;-95
2023/03/16 00:59:18;;;;;;;2.67;0.97;;;9.40;99.90;;;;;;6231211;23;20168;-95
2023/03/16 01:04:47;;;;;;;6.30;1.13;;;9.10;99.90;;;;;;6238960;23;20161;-95
2023/03/16 01:07:18;;;;;;;3.70;0.97;;;9.10;99.90;;;;;;6243103;23;20184;-95
2023/03/16 01:09:51;;;;;;;4.27;1.00;;;9.00;99.90;;;;;;6243817;23;20156;-96
2023/03/16 01:12:22;;;;;;;4.13;1.00;;;9.00;99.90;;;;;;6243616;23;20190;-95
2023/03/16 01:14:54;;;;;;;3.50;0.93;;;9.00;99.90;;;;;;6243885;23;20164;-95
2023/03/16 01:17:25;;;;;;;5.30;1.10;;;8.90;99.90;;;;;;6243116;23;20161;-93
2023/03/16 01:19:56;;;;;;;2.80;1.00;;;8.90;99.90;;;;;;6236653;23;20165;-96
2023/03/16 01:22:27;;;;;;;4.63;1.13;;;8.90;99.90;;;;;;6224826;23;20215;-95
2023/03/16 01:24:59;;;;;;;2.33;0.80;;;8.90;99.90;;;;;;6222191;23;20168;-96
2023/03/16 01:27:31;;;;;;;2.73;1.00;;;8.80;99.90;;;;;;6197169;23;20165;-96
2023/03/16 01:30:02;;;;;;;3.97;1.00;;;8.70;99.90;;;;;;6221782;23;20188;-96
2023/03/16 01:32:34;;;;;;;2.30;1.17;;;8.70;99.90;;;;;;6220883;23;20205;-95
2023/03/16 01:35:06;;;;;;;1.97;0.80;;;8.60;99.90;;;;;;6220624;23;20173;-96
2023/03/16 01:37:36;;;;;;;4.07;1.07;;;8.60;99.90;;;;;;6195366;23;20168;-96
2023/03/16 01:40:11;;;;;;;1.00;0.90;;;8.60;99.90;;;;;;6224114;23;20173;-94
2023/03/16 01:42:51;;;;;;;4.63;1.43;;;8.60;99.90;;;;;;6225214;23;20191;-95
2023/03/16 01:45:58;;;;;;;2.17;1.20;;;8.40;99.90;;;;;;6222342;23;20219;-94
2023/03/16 01:48:36;;;;;;;3.67;1.70;;;8.30;99.90;;;;;;6221032;23;20173;-96
2023/03/16 01:51:11;;;;;;;2.50;1.30;;;8.30;99.90;;;;;;6232798;23;20159;-95
2023/03/16 01:53:46;;;;;;;4.03;1.03;;;8.20;99.90;;;;;;6242528;23;20195;-96
2023/03/16 01:56:24;;;;;;;4.53;1.10;;;8.10;99.90;;;;;;6240531;23;20164;-96
2023/03/16 01:58:58;;;;;;;5.60;1.50;;;8.00;99.90;;;;;;6219834;23;20168;-91
2023/03/16 02:01:30;;;;;;;6.00;1.63;;;7.80;99.90;;;;;;6217747;23;20164;-89
2023/03/16 02:04:13;;;;;;;2.83;1.20;;;7.70;99.90;;;;;;6216329;23;20187;-89
2023/03/16 02:06:46;;;;;;;2.70;1.43;;;7.60;99.90;;;;;;6217699;23;20187;-90
2023/03/16 02:09:19;;;;;;;4.50;1.10;;;7.50;99.90;;;;;;6215283;23;20693;-90
2023/03/16 02:11:54;;;;;;;2.57;1.00;;;7.40;99.90;;;;;;6192333;23;20169;-92
2023/03/16 02:14:26;;;;;;;2.60;1.20;;;7.30;99.90;;;;;;6216523;23;20200;-91
2023/03/16 02:16:58;;;;;;;3.13;1.10;;;7.20;99.90;;;;;;6217493;23;20176;-91
2023/03/16 02:19:41;;;;;;;1.83;1.37;;;7.10;99.90;;;;;;6215605;23;20578;-90
2023/03/16 02:22:13;;;;;;;5.37;1.73;;;7.00;99.90;;;;;;6216242;23;20223;-91
2023/03/16 02:24:44;;;;;;;2.60;1.37;;;6.80;99.90;;;;;;6217993;23;20177;-89
2023/03/16 02:27:25;;;;;;;4.53;1.83;;;6.70;99.90;;;;;;6219490;23;20176;-90
2023/03/16 02:30:10;;;;;;;4.10;2.23;;;6.70;99.90;;;;;;6221137;23;20195;-89
2023/03/16 02:32:43;;;;;;;4.70;2.43;;;6.50;99.90;;;;;;6229307;23;20204;-90
2023/03/16 02:35:14;;;;;;;5.23;2.57;;;6.40;99.90;;;;;;6229602;23;20252;-89
2023/03/16 02:37:46;;;;;;;3.70;2.13;;;6.30;99.90;;;;;;6229392;23;20180;-91
2023/03/16 02:40:27;;;;;;;4.90;2.93;;;6.20;99.90;;;;;;6219691;23;20164;-91
2023/03/16 02:43:03;;;;;;;3.60;2.20;;;6.10;99.90;;;;;;6192168;23;20169;-91
2023/03/16 02:45:41;;;;;;;9.30;2.87;;;6.10;99.90;;;;;;6221183;23;20183;-91
2023/03/16 02:48:17;;;;;;;4.47;2.23;;;6.00;99.90;;;;;;6216994;23;20180;-90
2023/03/16 02:50:51;;;;;;;5.27;2.43;;;5.90;99.90;;;;;;6215921;23;20228;-91
2023/03/16 02:53:24;;;;;;;4.43;2.03;;;5.90;99.90;;;;;;6216519;23;20368;-91
2023/03/16 02:55:55;;;;;;;5.50;1.97;;;5.90;99.90;;;;;;6217824;23;20634;-88
2023/03/16 02:58:26;;;;;;;4.50;1.83;;;5.80;99.90;;;;;;6216184;23;20177;-90
2023/03/16 03:01:00;;;;;;;3.27;1.80;;;5.70;99.90;;;;;;6217975;23;20199;-91
2023/03/16 03:03:33;;;;;;;4.10;1.77;;;5.70;99.90;;;;;;6217521;23;20183;-90
2023/03/16 03:06:05;;;;;;;4.37;1.80;;;5.70;99.90;;;;;;6216484;23;20607;-89
2023/03/16 03:08:38;;;;;;;6.23;1.80;;;5.60;99.90;;;;;;6219547;23;20180;-89
2023/03/16 03:11:11;;;;;;;2.97;1.47;;;5.60;99.90;;;;;;6218562;23;20223;-90
2023/03/16 03:13:44;;;;;;;5.70;1.70;;;5.50;99.90;;;;;;6217647;23;20526;-89
2023/03/16 03:16:19;;;;;;;2.70;1.50;;;5.50;99.90;;;;;;6212249;23;20173;-91
2023/03/16 03:18:51;;;;;;;2.70;1.40;;;5.40;99.90;;;;;;6215284;23;20231;-90
2023/03/16 03:21:24;;;;;;;2.57;1.43;;;5.40;99.90;;;;;;6214550;23;20231;-91
2023/03/16 03:23:55;;;;;;;4.43;1.73;;;5.40;99.90;;;;;;6191010;23;20630;-91
2023/03/16 03:26:28;;;;;;;2.83;1.57;;;5.40;99.90;;;;;;6217086;23;20534;-91
2023/03/16 03:28:59;;;;;;;5.30;1.80;;;5.30;99.90;;;;;;6188790;23;20184;-91
2023/03/16 03:31:33;;;;;;;3.47;1.60;;;5.30;99.90;;;;;;6215479;23;20199;-91
2023/03/16 03:34:05;;;;;;;2.40;1.43;;;5.40;99.90;;;;;;6217662;23;20200;-91
2023/03/16 03:36:37;;;;;;;4.20;1.67;;;5.40;99.90;;;;;;6191878;23;20172;-90
2023/03/16 03:39:09;;;;;;;5.07;1.93;;;5.40;99.90;;;;;;6216708;23;20238;-92
2023/03/16 03:41:40;;;;;;;3.37;1.70;;;5.40;99.90;;;;;;6215875;23;20184;-90
2023/03/16 03:44:12;;;;;;;5.03;1.93;;;5.50;99.90;;;;;;6216364;23;20177;-91
2023/03/16 03:46:45;;;;;;;4.63;2.13;;;5.50;99.90;;;;;;6216453;23;20168;-91
2023/03/16 03:49:18;;;;;;;3.07;1.70;;;5.50;99.90;;;;;;6192071;23;20179;-93
2023/03/16 03:51:50;;;;;;;4.57;1.60;;;5.60;99.90;;;;;;6216156;23;20184;-89
2023/03/16 03:54:21;;;;;;;4.63;1.73;;;5.60;99.90;;;;;;6193604;23;20539;-91
2023/03/16 03:56:53;;;;;;;4.93;1.40;;;5.60;99.90;;;;;;6222778;23;20234;-90
2023/03/16 03:59:25;;;;;;;4.00;1.70;;;5.60;99.90;;;;;;6242263;23;20180;-90
2023/03/16 04:02:00;;;;;;;4.83;2.27;;;5.70;99.90;;;;;;6240887;23;20164;-89
2023/03/16 04:04:33;;;;;;;4.00;1.30;;;5.70;99.90;;;;;;6228021;23;20175;-90
2023/03/16 04:07:05;;;;;;;3.10;2.10;;;5.80;99.90;;;;;;6226939;23;20172;-91
2023/03/16 04:09:37;;;;;;;3.27;1.77;;;5.80;99.90;;;;;;6218281;23;20231;-90
2023/03/16 04:12:10;;;;;;;4.10;1.53;;;5.80;99.90;;;;;;6218797;23;20171;-90
2023/03/16 04:14:41;;;;;;;5.43;1.67;;;5.80;99.90;;;;;;6217315;23;20277;-90
2023/03/16 04:17:16;;;;;;;2.90;1.60;;;5.80;99.90;;;;;;6216963;23;20167;-92
2023/03/16 04:19:47;;;;;;;4.37;1.90;;;5.90;99.90;;;;;;6217286;23;20203;-91
2023/03/16 04:22:22;;;;;;;2.13;1.33;;;5.90;99.90;;;;;;6218931;23;20172;-92
2023/03/16 04:24:53;;;;;;;4.57;2.00;;;5.90;99.90;;;;;;6218226;23;20176;-90
2023/03/16 04:27:25;;;;;;;3.17;1.57;;;5.90;99.90;;;;;;6216209;23;20188;-91
2023/03/16 04:29:58;;;;;;;3.73;2.20;;;5.90;99.90;;;;;;6217470;23;20188;-91
2023/03/16 04:32:32;;;;;;;5.07;2.20;;;5.80;99.90;;;;;;6217396;23;20199;-92
2023/03/16 04:35:05;;;;;;;6.00;2.80;;;5.90;99.90;;;;;;6216363;23;20685;-93
2023/03/16 04:37:36;;;;;;;8.50;3.90;;;5.90;99.90;;;;;;6215798;23;20211;-90
2023/03/16 04:40:16;;;;;;;7.73;4.27;;;5.80;99.90;;;;;;6217939;23;20207;-91
2023/03/16 04:42:48;;;;;;;12.50;4.33;;;5.80;99.90;;;;;;6191098;23;20177;-90
2023/03/16 04:45:20;;;;;;;9.47;4.40;;;5.80;99.90;;;;;;6191718;23;20172;-91
2023/03/16 04:47:53;;;;;;;7.77;4.10;;;5.70;99.90;;;;;;6216164;23;20180;-90
2023/03/16 04:50:25;;;;;;;7.90;3.77;;;5.70;99.90;;;;;;6217673;23;20180;-90
2023/03/16 04:52:56;;;;;;;7.43;3.60;;;5.60;99.90;;;;;;6216949;23;20196;-89
2023/03/16 04:55:28;;;;;;;6.50;3.73;;;5.60;99.90;;;;;;6217579;23;20196;-88
2023/03/16 04:58:00;;;;;;;6.57;2.80;;;5.60;99.90;;;;;;6216331;23;20176;-89
2023/03/16 05:00:32;;;;;;;5.50;2.97;;;5.60;99.90;;;;;;6216974;23;20177;-89
2023/03/16 05:03:06;;;;;;;5.93;2.93;;;5.50;99.90;;;;;;6216899;23;20251;-90
2023/03/16 05:05:39;;;;;;;3.97;2.40;;;5.40;99.90;;;;;;6218147;23;20187;-89
2023/03/16 05:08:11;;;;;;;4.50;2.30;;;5.40;99.90;;;;;;6216073;23;20183;-90
2023/03/16 05:10:43;;;;;;;3.20;2.03;;;5.40;99.90;;;;;;6217431;23;20172;-89
2023/03/16 05:13:15;;;;;;;9.67;2.23;;;5.30;99.90;;;;;;6190744;23;20248;-90
2023/03/16 05:15:46;;;;;;;6.10;2.47;;;5.20;99.90;;;;;;6217717;23;20200;-91
2023/03/16 05:18:20;;;;;;;5.10;2.30;;;5.20;99.90;;;;;;6216967;23;20192;-90
2023/03/16 05:20:52;;;;;;;8.10;2.20;;;5.20;99.90;;;;;;6220306;23;20244;-90
2023/03/16 05:23:25;;;;;;;5.50;1.73;;;5.10;99.90;;;;;;6219701;23;20177;-90
2023/03/16 05:25:58;;;;;;;3.73;1.90;;;5.10;99.90;;;;;;6216757;23;20235;-89
2023/03/16 05:28:32;;;;;;;6.37;2.30;;;5.00;99.90;;;;;;6216161;23;20360;-88
2023/03/16 05:31:04;;;;;;;5.77;2.17;;;4.90;99.90;;;;;;6217821;23;20165;-89
2023/03/16 05:33:45;;;;;;;4.57;2.20;;;4.90;99.90;;;;;;6217532;23;20188;-90
2023/03/16 05:36:17;;;;;;;6.70;1.93;;;4.80;99.90;;;;;;6217181;23;20180;-89
2023/03/16 05:38:49;;;;;;;3.80;2.13;;;4.80;99.90;;;;;;6216578;23;20181;-91
2023/03/16 05:41:22;;;;;;;4.67;2.10;;;4.70;99.90;;;;;;6216948;23;20180;-89
2023/03/16 05:43:54;;;;;;;3.33;2.20;;;4.60;99.90;;;;;;6216984;23;20172;-89
2023/03/16 05:46:25;;;;;;;4.87;2.43;;;4.50;99.90;;;;;;6217168;23;20185;-89
2023/03/16 05:48:59;;;;;;;7.00;2.37;;;4.40;99.90;;;;;;6216362;23;20172;-90
2023/03/16 05:51:31;;;;;;;5.23;2.50;;;4.40;99.90;;;;;;6217249;23;20169;-90
2023/03/16 05:54:03;;;;;;;5.47;2.60;;;4.30;99.90;;;;;;6218241;23;20546;-90
2023/03/16 05:56:35;;;;;;;5.60;2.70;;;4.30;99.90;;;;;;6217200;23;20226;-89
2023/03/16 05:59:06;;;;;;;12.73;3.00;;;4.30;99.90;;;;;;6216680;23;20184;-88
2023/03/16 06:01:38;;;;;;;3.23;1.93;;;4.30;99.90;;;;;;6217466;23;20234;-89
2023/03/16 06:04:13;;;;;;;6.23;2.53;;;4.20;99.90;;;;;;6217145;23;20165;-89
2023/03/16 06:06:44;;;;;;;3.30;2.57;;;4.20;99.90;;;;;;6193008;23;20227;-91
2023/03/16 06:09:17;;;;;;;4.27;2.37;;;4.10;99.90;;;;;;6217153;23;20171;-90
2023/03/16 06:11:48;;;;;;;4.80;2.53;;;4.00;99.90;;;;;;6192982;23;20176;-89
2023/03/16 06:14:20;;;;;;;4.43;2.07;;;4.00;99.90;;;;;;6241295;23;20176;-89
2023/03/16 06:16:52;;;;;;;2.93;1.80;;;3.90;99.90;;;;;;6241863;23;20168;-90
2023/03/16 06:19:26;;;;;;;3.97;2.47;;;3.90;99.90;;;;;;6227627;23;20238;-89
2023/03/16 06:21:57;;;;;;;3.40;1.70;;;3.90;99.90;;;;;;6219032;23;20683;-91
2023/03/16 06:24:29;;;;;;;5.33;1.90;;;3.80;99.90;;;;;;6219866;23;20172;-91
2023/03/16 06:27:01;;;;;;;3.40;1.97;;;3.80;99.90;;;;;;6217169;23;20172;-90
2023/03/16 06:29:32;;;;;;;7.47;2.20;;;3.80;99.90;;;;;;6216515;23;20199;-86
2023/03/16 06:32:03;;;;;;;4.13;1.40;;;3.80;99.90;;;;;;6217284;23;20176;-89
2023/03/16 06:34:38;;;;;;;5.97;1.90;;;3.80;99.90;;;;;;6217241;23;20246;-90
2023/03/16 06:37:09;;;;;;;4.30;1.47;;;3.70;99.90;;;;;;6217376;23;20175;-92
2023/03/16 06:39:43;;;;;;;6.50;1.60;;;3.70;99.90;;;;;;6223707;23;20173;-89
2023/03/16 06:42:14;;;;;;;5.13;1.90;;;3.70;99.90;;;;;;6233409;23;20181;-90
2023/03/16 06:44:47;;;;;;;3.73;2.10;;;3.60;99.90;;;;;;6237071;23;20184;-90
2023/03/16 06:47:18;;;;;;;2.47;1.67;;;3.60;99.90;;;;;;6237892;23;20184;-90
2023/03/16 06:49:54;;;;;;;2.70;1.70;;;3.50;99.90;;;;;;6235087;23;20203;-90
2023/03/16 06:52:25;;;;;;;2.90;1.70;;;3.50;99.90;;;;;;6230744;23;20208;-89
2023/03/16 06:54:57;;;;;;;3.13;1.97;;;3.50;99.90;;;;;;6228036;23;20196;-89
2023/03/16 06:57:29;;;;;;;2.00;1.20;;;3.40;99.90;;;;;;6223949;23;20175;-90
2023/03/16 07:00:02;;;;;;;5.23;1.97;;;3.30;99.90;;;;;;6221407;23;20550;-89
2023/03/16 07:02:34;;;;;;;2.43;1.47;;;3.30;99.90;;;;;;6217284;23;20179;-90
2023/03/16 07:05:11;;;;;;;5.73;1.93;;;3.30;99.90;;;;;;6192390;23;20178;-89
2023/03/16 07:07:44;;;;;;;4.40;1.63;;;3.20;99.90;;;;;;6217061;23;20722;-89
2023/03/16 07:10:18;;;;;;;3.80;1.67;;;3.20;99.90;;;;;;6217847;23;20172;-90
2023/03/16 07:12:50;;;;;;;5.13;1.77;;;3.20;99.90;;;;;;6216669;23;20172;-90
2023/03/16 07:15:24;;;;;;;4.43;1.93;;;3.10;99.90;;;;;;6217104;23;20204;-90
2023/03/16 07:17:55;;;;;;;2.17;1.50;;;3.10;99.90;;;;;;6215941;23;20172;-89
2023/03/16 07:20:30;;;;;;;3.70;1.57;;;3.00;99.90;;;;;;6216354;23;20646;-89
2023/03/16 07:23:02;;;;;;;7.13;2.00;;;3.00;99.90;;;;;;6216067;23;20179;-90
2023/03/16 07:25:33;;;;;;;2.67;1.90;;;3.00;99.90;;;;;;6216663;23;20184;-90
2023/03/16 07:28:05;;;;;;;3.10;1.70;;;2.90;99.90;;;;;;6217458;23;20251;-90
2023/03/16 07:30:37;;;;;;;3.23;1.70;;;2.90;99.90;;;;;;6193109;23;20250;-91
2023/03/16 07:33:11;;;;;;;3.97;2.00;;;2.90;99.90;;;;;;6217114;23;20210;-90
2023/03/16 07:35:45;;;;;;;4.80;1.93;;;2.80;99.90;;;;;;6215805;23;20204;-90
2023/03/16 07:38:17;;;;;;;3.17;1.57;;;2.80;99.90;;;;;;6214748;23;20215;-90
2023/03/16 07:40:48;;;;;;;5.20;2.07;;;2.80;99.90;;;;;;6216810;23;20573;-90
2023/03/16 07:43:19;;;;;;;4.83;1.87;;;2.80;99.90;;;;;;6216077;23;20200;-90
2023/03/16 07:45:52;;;;;;;3.80;1.93;;;2.70;99.90;;;;;;6216076;23;20169;-90
2023/03/16 07:48:24;;;;;;;2.23;1.53;;;2.70;99.90;;;;;;6189447;23;20168;-90
2023/03/16 07:50:57;;;;;;;6.53;2.00;;;2.60;99.90;;;;;;6216799;23;20674;-90
2023/03/16 07:53:29;;;;;;;2.90;1.80;;;2.70;99.90;;;;;;6217893;23;20498;-90
2023/03/16 07:56:01;;;;;;;3.97;1.60;;;2.70;99.90;;;;;;6217854;23;20227;-89
2023/03/16 07:58:33;;;;;;;3.10;1.70;;;2.60;99.90;;;;;;6217298;23;20176;-89
2023/03/16 08:01:05;;;;;;;4.03;1.67;;;2.60;99.90;;;;;;6217947;23;20176;-89
2023/03/16 08:03:37;;;;;;;5.00;1.60;;;2.50;99.90;;;;;;6217883;23;20259;-90
2023/03/16 08:06:11;;;;;;;3.87;1.67;;;2.40;99.90;;;;;;6192740;23;20190;-90
2023/03/16 08:08:43;;;;;;;3.80;2.00;;;2.40;99.90;;;;;;6218374;23;20165;-90
2023/03/16 08:11:22;;;;;;;5.13;1.50;;;2.40;99.90;;;;;;6219592;23;20240;-90
2023/03/16 08:13:55;;;;;;;4.00;1.83;;;2.40;99.90;;;;;;6216954;23;20187;-91
2023/03/16 08:16:28;;;;;;;4.43;1.63;;;2.40;99.90;;;;;;6221555;23;20189;-90
2023/03/16 08:19:00;;;;;;;5.43;1.90;;;2.30;99.90;;;;;;6241331;23;20196;-89
2023/03/16 08:21:35;;;;;;;4.20;1.53;;;2.30;99.90;;;;;;6241590;23;20211;-90
2023/03/16 08:24:26;;;;;;;2.07;1.30;;;2.30;99.90;;;;;;6220193;23;20176;-89
2023/03/16 08:26:58;;;;;;;3.03;1.60;;;2.20;99.90;;;;;;6220372;23;20165;-89
2023/03/16 08:29:30;;;;;;;1.90;1.30;;;2.20;99.90;;;;;;6217360;23;20263;-90
2023/03/16 08:32:01;;;;;;;2.70;1.53;;;2.10;99.90;;;;;;6218255;23;20223;-89
2023/03/16 08:34:35;;;;;;;1.80;1.47;;;2.10;99.90;;;;;;6218111;23;20176;-90
2023/03/16 08:37:08;;;;;;;3.73;1.50;;;2.10;99.90;;;;;;6191127;23;20204;-89
2023/03/16 08:39:42;;;;;;;2.70;1.53;;;2.10;99.90;;;;;;6217376;23;20172;-90
2023/03/16 08:42:15;;;;;;;3.77;1.80;;;2.10;99.90;;;;;;6217157;23;20176;-90
2023/03/16 08:44:47;;;;;;;2.23;1.40;;;2.00;99.90;;;;;;6218742;23;20183;-90
2023/03/16 08:47:18;;;;;;;2.10;1.37;;;2.00;99.90;;;;;;6216696;23;20203;-90
2023/03/16 08:49:51;;;;;;;3.47;1.47;;;2.00;99.90;;;;;;6217474;23;20173;-90
2023/03/16 08:52:24;;;;;;;2.57;1.17;;;1.90;99.90;;;;;;6217474;23;20180;-90
2023/03/16 08:54:56;;;;;;;1.97;1.37;;;1.90;99.90;;;;;;6217715;23;20184;-91
2023/03/16 08:57:33;;;;;;;3.63;1.67;;;1.90;99.90;;;;;;6216734;23;20192;-90
2023/03/16 09:00:13;;;;;;;1.80;1.60;;;1.90;99.90;;;;;;6217943;23;20165;-92
2023/03/16 09:02:46;;;;;;;2.57;1.60;;;1.90;99.90;;;;;;6193979;23;20168;-90
2023/03/16 09:05:19;;;;;;;2.20;1.20;;;1.80;99.90;;;;;;6217843;23;20168;-90
2023/03/16 09:07:52;;;;;;;3.40;1.50;;;1.90;99.90;;;;;;6216025;23;20176;-90
2023/03/16 09:10:25;;;;;;;3.53;2.00;;;1.80;99.90;;;;;;6217029;23;20184;-90
2023/03/16 09:12:57;;;;;;;2.30;1.57;;;1.80;99.90;;;;;;6191687;23;20702;-91
2023/03/16 09:15:30;;;;;;;2.17;1.23;;;1.80;99.90;;;;;;6217898;23;20235;-91
2023/03/16 09:18:03;;;;;;;4.70;1.57;;;1.70;99.90;;;;;;6191543;23;20201;-90
2023/03/16 09:20:34;;;;;;;2.53;1.40;;;1.70;99.90;;;;;;6216499;23;20181;-91
2023/03/16 09:23:08;;;;;;;5.77;1.90;;;1.60;99.90;;;;;;6217155;23;20176;-90
2023/03/16 09:25:40;;;;;;;7.03;1.60;;;1.70;99.90;;;;;;6217696;23;20168;-90
2023/03/16 09:28:11;;;;;;;5.27;1.70;;;1.60;99.90;;;;;;6215310;23;20230;-91
2023/03/16 09:30:43;;;;;;;2.40;1.53;;;1.60;99.90;;;;;;6217202;23;20187;-91
2023/03/16 09:33:14;;;;;;;4.13;1.83;;;1.60;99.90;;;;;;6217286;23;20180;-91
2023/03/16 09:35:46;;;;;;;4.43;1.77;;;1.60;99.90;;;;;;6216485;23;20176;-91
2023/03/16 09:38:20;;;;;;;4.63;1.73;;;1.60;99.90;;;;;;6188510;23;20725;-90
2023/03/16 09:40:59;;;;;;;8.27;2.30;;;1.60;99.90;;;;;;6216814;23;20168;-92
2023/03/16 09:43:56;;;;;;;2.00;1.60;;;1.50;99.90;;;;;;6215551;23;20251;-91
2023/03/16 09:46:31;;;;;;;2.77;1.60;;;1.50;99.90;;;;;;6211724;23;20184;-90
2023/03/16 09:49:07;;;;;;;5.67;1.73;;;1.50;99.90;;;;;;6216165;23;20876;-91
2023/03/16 09:51:43;;;;;;;2.77;1.77;;;1.40;99.90;;;;;;6216595;23;20230;-90
2023/03/16 09:54:24;;;;;;;2.53;1.40;;;1.40;99.90;;;;;;6217115;23;20172;-90
2023/03/16 09:56:58;;;;;;;2.97;1.50;;;1.40;99.90;;;;;;6217120;23;20222;-90
2023/03/16 09:59:29;;;;;;;4.13;1.87;;;1.40;99.90;;;;;;6190399;23;20184;-90
2023/03/16 10:02:27;;;;;;;5.77;2.07;;;1.40;99.90;;;;;;6217325;23;20215;-90
2023/03/16 10:05:08;;;;;;;3.83;1.83;;;1.30;99.90;;;;;;6195647;23;20227;-90
2023/03/16 10:07:51;;;;;;;2.90;1.83;;;1.30;99.90;;;;;;6218616;23;20172;-90
2023/03/16 10:10:37;;;;;;;3.80;1.90;;;1.20;99.90;;;;;;6218293;23;20175;-90
2023/03/16 10:13:18;;;;;;;2.70;1.70;;;1.20;99.90;;;;;;6217853;23;20829;-91
2023/03/16 10:15:52;;;;;;;7.83;2.00;;;1.20;99.90;;;;;;6216700;23;20188;-90
2023/03/16 10:18:29;;;;;;;4.07;2.27;;;1.20;99.90;;;;;;6217891;23;20196;-90
2023/03/16 10:21:03;;;;;;;5.33;1.67;;;1.10;99.90;;;;;;6241985;23;20191;-90
2023/03/16 10:23:36;;;;;;;4.00;1.90;;;1.00;99.90;;;;;;6241407;23;20160;-91
2023/03/16 10:26:17;;;;;;;3.53;1.70;;;1.00;99.90;;;;;;6223454;23;20261;-90
2023/03/16 10:28:49;;;;;;;3.10;1.97;;;1.00;99.90;;;;;;6217482;23;20168;-90
2023/03/16 10:31:25;;;;;;;4.67;2.03;;;0.90;99.90;;;;;;6217694;23;20180;-90
2023/03/16 10:34:03;;;;;;;4.33;1.63;;;0.90;99.90;;;;;;6217114;23;20182;-91
2023/03/16 10:36:37;;;;;;;6.03;2.20;;;0.90;99.90;;;;;;6217624;23;20172;-91
2023/03/16 10:39:11;;;;;;;3.57;1.93;;;0.80;99.90;;;;;;6190271;23;20168;-90
2023/03/16 10:41:49;;;;;;;4.90;2.27;;;0.80;99.90;;;;;;6216623;23;20168;-92
2023/03/16 10:44:25;;;;;;;4.43;2.30;;;0.80;99.90;;;;;;6216677;23;20183;-91
2023/03/16 10:47:03;;;;;;;4.23;2.10;;;0.80;99.90;;;;;;6216553;23;20179;-91
2023/03/16 10:49:40;;;;;;;6.20;2.27;;;0.70;99.90;;;;;;6214964;23;20203;-91
2023/03/16 10:52:19;;;;;;;5.50;2.40;;;0.70;99.90;;;;;;6216286;23;20175;-90
2023/03/16 10:54:54;;;;;;;3.80;2.20;;;0.70;99.90;;;;;;6217109;23;20595;-90
2023/03/16 10:57:33;;;;;;;6.13;2.70;;;0.60;99.90;;;;;;6215605;23;20646;-90
2023/03/16 11:00:19;;;;;;;7.00;2.57;;;0.60;99.90;;;;;;6217235;23;20180;-90
2023/03/16 11:02:53;;;;;;;4.10;2.60;;;0.60;99.90;;;;;;6216165;23;20196;-91
2023/03/16 11:05:30;;;;;;;4.60;2.43;;;0.60;99.90;;;;;;6191508;23;20199;-90
2023/03/16 11:08:10;;;;;;;4.53;2.60;;;0.60;99.90;;;;;;6217047;23;20172;-91
2023/03/16 11:10:43;;;;;;;3.33;2.23;;;0.60;99.90;;;;;;6217572;23;20516;-92
2023/03/16 11:13:33;;;;;;;4.77;2.20;;;0.60;99.90;;;;;;6216118;23;20176;-90
2023/03/16 11:16:15;;;;;;;4.17;2.00;;;0.70;99.90;;;;;;6216532;23;20176;-91
2023/03/16 11:18:49;;;;;;;5.20;2.23;;;0.70;99.90;;;;;;6214878;23;20277;-91
2023/03/16 11:21:28;;;;;;;3.97;2.20;;;0.70;99.90;;;;;;6216328;23;20503;-90
2023/03/16 11:24:03;;;;;;;5.20;2.10;;;0.70;99.90;;;;;;6216191;23;20562;-90
2023/03/16 11:26:38;;;;;;;3.73;1.90;;;0.70;99.90;;;;;;6216200;23;20175;-91
2023/03/16 11:29:21;;;;;;;7.60;1.97;;;0.60;99.90;;;;;;6190159;23;20188;-89
2023/03/16 11:31:57;;;;;;;3.70;2.07;;;0.60;99.90;;;;;;6216043;23;20227;-90
2023/03/16 11:34:30;;;;;;;2.30;1.83;;;0.60;99.90;;;;;;6216201;23;20172;-90
2023/03/16 11:37:11;;;;;;;4.00;1.70;;;0.60;99.90;;;;;;6190490;23;20567;-92
2023/03/16 11:39:51;;;;;;;3.70;2.00;;;0.60;99.90;;;;;;6216743;23;20215;-91
2023/03/16 11:42:32;;;;;;;4.13;2.07;;;0.60;99.90;;;;;;6216451;23;20635;-91
2023/03/16 11:45:17;;;;;;;5.37;1.90;;;0.60;99.90;;;;;;6215618;23;20708;-89
2023/03/16 11:48:27;;;;;;;2.87;1.70;;;0.50;99.90;;;;;;6215310;23;20569;-90
2023/03/16 11:51:08;;;;;;;3.63;1.77;;;0.50;99.90;;;;;;6188549;23;20219;-91
2023/03/16 11:53:52;;;;;;;5.37;2.13;;;0.50;99.90;;;;;;6216350;23;20180;-90
2023/03/16 11:56:34;;;;;;;3.77;1.87;;;0.50;99.90;;;;;;6216648;23;20168;-90
2023/03/16 11:59:41;;;;;;;3.00;1.70;;;0.60;99.90;;;;;;6215259;23;20262;-89
2023/03/16 12:02:50;;;;;;;5.90;2.07;;;0.60;99.90;;;;;;6176403;23;20180;-91
2023/03/16 12:05:49;;;;;;;3.30;1.70;;;0.60;99.90;;;;;;6217039;23;20242;-90
2023/03/16 12:08:38;;;;;;;3.67;1.90;;;0.60;99.90;;;;;;6213742;23;20653;-92
2023/03/16 12:11:14;;;;;;;5.80;1.83;;;0.60;99.90;;;;;;6216141;23;20176;-90
2023/03/16 12:14:03;;;;;;;7.27;2.17;;;0.60;99.90;;;;;;6217068;23;20184;-90
2023/03/16 12:16:43;;;;;;;2.60;1.70;;;0.60;99.90;;;;;;6212709;23;20172;-91
2023/03/16 12:19:24;;;;;;;4.53;1.87;;;0.60;99.90;;;;;;6217360;23;20290;-90
2023/03/16 12:22:04;;;;;;;3.13;1.60;;;0.50;99.90;;;;;;6191274;23;20222;-90
2023/03/16 12:24:41;;;;;;;3.10;1.30;;;0.60;99.90;;;;;;6235549;23;20176;-91
2023/03/16 12:27:17;;;;;;;4.40;1.50;;;0.50;99.90;;;;;;6242522;23;20153;-92
2023/03/16 12:30:02;;;;;;;2.57;1.50;;;0.50;99.90;;;;;;6235481;23;20184;-91
2023/03/16 12:32:43;;;;;;;3.20;1.93;;;0.50;99.90;;;;;;6218732;23;20168;-91
2023/03/16 12:35:29;;;;;;;3.13;2.00;;;0.40;99.90;;;;;;6220183;23;20172;-90
2023/03/16 12:38:24;;;;;;;2.93;1.70;;;0.40;99.90;;;;;;6241121;23;20240;-90
2023/03/16 12:41:06;;;;;;;4.47;1.90;;;0.30;99.90;;;;;;6242651;23;20165;-92
2023/03/16 12:43:51;;;;;;;5.03;1.73;;;0.30;99.90;;;;;;6239121;23;20172;-90
2023/03/16 12:46:30;;;;;;;4.30;1.97;;;0.30;99.90;;;;;;6234693;23;20168;-90
2023/03/16 12:49:03;;;;;;;3.50;1.73;;;0.30;99.90;;;;;;6198756;23;20194;-90
2023/03/16 12:51:37;;;;;;;7.17;2.27;;;0.20;99.90;;;;;;6224498;23;20173;-91
2023/03/16 12:54:21;;;;;;;4.63;1.90;;;0.20;99.90;;;;;;6222870;23;20244;-90
2023/03/16 12:56:55;;;;;;;3.17;2.17;;;0.10;99.90;;;;;;6218344;23;20184;-91
2023/03/16 12:59:37;;;;;;;2.93;2.07;;;0.10;99.90;;;;;;6191808;23;20200;-92
2023/03/16 13:02:16;;;;;;;3.23;2.10;;;0.10;99.90;;;;;;6218136;23;20250;-90
2023/03/16 13:04:50;;;;;;;4.97;2.37;;;0.10;99.90;;;;;;6218012;23;20271;-90
2023/03/16 13:07:24;;;;;;;6.90;2.50;;;0.10;99.90;;;;;;6217588;23;20259;-90
2023/03/16 13:10:03;;;;;;;6.30;2.63;;;0.10;99.90;;;;;;6218252;23;20237;-90
2023/03/16 13:12:37;;;;;;;5.10;2.60;;;0.00;99.90;;;;;;6220600;23;20191;-90
2023/03/16 13:15:28;;;;;;;3.97;2.60;;;0.10;99.90;;;;;;6219869;23;20173;-89
2023/03/16 13:18:22;;;;;;;5.57;2.57;;;0.00;99.90;;;;;;6216959;23;20256;-91
2023/03/16 13:20:59;;;;;;;4.73;2.33;;;0.00;99.90;;;;;;6218101;23;20227;-91
2023/03/16 13:23:53;;;;;;;4.70;2.10;;;0.00;99.90;;;;;;6218116;23;20184;-91
2023/03/16 13:26:46;;;;;;;4.10;2.20;;;0.00;99.90;;;;;;6217293;23;20172;-91
2023/03/16 13:29:26;;;;;;;6.00;2.00;;;0.00;99.90;;;;;;6216436;23;20235;-91
2023/03/16 13:31:59;;;;;;;3.67;2.10;;;0.00;99.90;;;;;;6217748;23;20164;-91
2023/03/16 13:34:32;;;;;;;5.97;1.73;;;-0.10;99.90;;;;;;6217671;23;20197;-91
2023/03/16 13:37:04;;;;;;;5.60;2.27;;;0.00;99.90;;;;;;6218932;23;20177;-90
2023/03/16 13:39:55;;;;;;;5.53;2.43;;;0.00;99.90;;;;;;6220247;23;20200;-90
2023/03/16 13:42:32;;;;;;;3.87;1.77;;;-0.10;99.90;;;;;;6220186;23;20201;-92